Time;durP1;ratioP1;P1;durP2;ratioP2;P2;SDS_P1;SDS_P2;PMS_P1;PMS_P2;Temp;Humidity;BMP_temperature;BMP_pressure;BME280_temperature;BME280_humidity;BME280_pressure;Samples;Min_cycle;Max_cycle;Signal;HPM_P1;HPM_P2
2023/11/05 00:01:15;;;;;;;1.67;0.80;;;;;;;;;;10263459;28;20050;-73
2023/11/05 00:06:18;;;;;;;2.85;1.13;;;;;;;;;;10266992;28;20074;-74
2023/11/05 00:11:23;;;;;;;2.35;0.90;;;;;;;;;;10261248;28;20043;-73
2023/11/05 00:16:26;;;;;;;6.18;1.17;;;;;;;;;;10241038;28;20502;-75
2023/11/05 00:21:29;;;;;;;6.15;1.00;;;;;;;;;;10243368;28;20047;-74
2023/11/05 00:26:34;;;;;;;2.65;1.33;;;;;;;;;;10251724;28;20059;-75
2023/11/05 00:31:37;;;;;;;2.50;0.98;;;;;;;;;;10270691;28;20508;-74
2023/11/05 00:36:41;;;;;;;2.58;0.90;;;;;;;;;;10257718;28;20055;-74
2023/11/05 00:41:46;;;;;;;3.80;1.08;;;;;;;;;;10272841;28;20405;-74
2023/11/05 00:46:49;;;;;;;2.40;0.80;;;;;;;;;;10264709;28;20145;-74
2023/11/05 00:51:52;;;;;;;4.45;1.15;;;;;;;;;;10265151;28;20047;-74
2023/11/05 00:56:57;;;;;;;4.10;0.80;;;;;;;;;;10252444;28;20451;-76
2023/11/05 01:02:00;;;;;;;2.53;0.80;;;;;;;;;;10246565;28;20050;-74
2023/11/05 01:07:04;;;;;;;2.25;0.98;;;;;;;;;;10254461;28;20051;-75
2023/11/05 01:12:10;;;;;;;3.67;1.38;;;;;;;;;;10237885;28;20054;-74
2023/11/05 01:17:13;;;;;;;2.60;0.80;;;;;;;;;;10262282;28;20522;-75
2023/11/05 01:22:16;;;;;;;1.55;0.90;;;;;;;;;;10259684;28;20043;-74
2023/11/05 01:27:21;;;;;;;4.57;1.23;;;;;;;;;;10245630;28;20054;-75
2023/11/05 01:32:24;;;;;;;3.75;1.13;;;;;;;;;;10271250;28;20121;-75
2023/11/05 01:37:28;;;;;;;1.38;0.85;;;;;;;;;;10265710;28;20051;-75
2023/11/05 01:42:32;;;;;;;2.17;0.93;;;;;;;;;;10256567;28;20048;-75
2023/11/05 01:47:36;;;;;;;1.13;0.70;;;;;;;;;;10253944;28;20059;-75
2023/11/05 01:52:39;;;;;;;4.40;0.90;;;;;;;;;;10269779;28;20137;-75
2023/11/05 01:57:44;;;;;;;0.50;0.40;;;;;;;;;;10255682;28;20143;-75
2023/11/05 02:02:48;;;;;;;1.52;0.68;;;;;;;;;;10240823;28;20099;-75
2023/11/05 02:07:51;;;;;;;0.85;0.47;;;;;;;;;;10234300;28;20047;-74
2023/11/05 02:12:58;;;;;;;2.13;0.60;;;;;;;;;;10249640;28;20150;-74
2023/11/05 02:18:01;;;;;;;1.17;0.70;;;;;;;;;;10259239;28;20043;-74
2023/11/05 02:23:07;;;;;;;3.03;0.65;;;;;;;;;;10238993;28;20099;-74
2023/11/05 02:28:12;;;;;;;2.10;0.60;;;;;;;;;;10230364;28;20385;-74
2023/11/05 02:33:16;;;;;;;2.83;0.73;;;;;;;;;;10234927;28;20495;-74
2023/11/05 02:38:19;;;;;;;1.58;0.50;;;;;;;;;;10255844;28;20412;-74
2023/11/05 02:43:24;;;;;;;1.42;0.70;;;;;;;;;;10246616;28;20046;-74
2023/11/05 02:48:27;;;;;;;3.47;0.88;;;;;;;;;;10271411;28;20138;-74
2023/11/05 02:53:30;;;;;;;1.92;0.60;;;;;;;;;;10259575;28;20067;-74
2023/11/05 02:58:35;;;;;;;1.85;0.80;;;;;;;;;;10247362;28;20708;-74
2023/11/05 03:03:38;;;;;;;1.73;0.70;;;;;;;;;;10230583;28;20130;-74
2023/11/05 03:08:42;;;;;;;2.95;0.52;;;;;;;;;;10258502;28;20058;-74
2023/11/05 03:13:47;;;;;;;1.08;0.60;;;;;;;;;;10247504;28;20043;-74
2023/11/05 03:18:50;;;;;;;1.15;0.50;;;;;;;;;;10240557;28;20055;-74
2023/11/05 03:23:53;;;;;;;2.65;0.77;;;;;;;;;;10272249;28;20046;-74
2023/11/05 03:28:58;;;;;;;2.75;0.70;;;;;;;;;;10248081;28;20058;-74
2023/11/05 03:34:02;;;;;;;1.83;0.60;;;;;;;;;;10255299;28;20052;-74
2023/11/05 03:39:06;;;;;;;1.90;0.60;;;;;;;;;;10264663;28;20047;-74
2023/11/05 03:44:10;;;;;;;1.95;0.65;;;;;;;;;;10269651;28;20050;-74
2023/11/05 03:49:14;;;;;;;1.90;0.60;;;;;;;;;;10278825;28;20089;-73
2023/11/05 03:54:17;;;;;;;0.93;0.57;;;;;;;;;;10254613;28;20043;-74
2023/11/05 03:59:21;;;;;;;2.28;0.88;;;;;;;;;;10253283;28;20069;-74
2023/11/05 04:04:25;;;;;;;1.13;0.45;;;;;;;;;;10273958;28;20536;-74
2023/11/05 04:09:28;;;;;;;2.40;0.50;;;;;;;;;;10240339;28;20058;-74
2023/11/05 04:14:33;;;;;;;1.83;0.50;;;;;;;;;;10269929;28;20059;-73
2023/11/05 04:19:37;;;;;;;1.52;0.50;;;;;;;;;;10263437;28;20051;-74
2023/11/05 04:24:41;;;;;;;1.13;0.47;;;;;;;;;;10268348;28;20154;-74
2023/11/05 04:29:45;;;;;;;0.50;0.50;;;;;;;;;;10263993;28;20408;-74
2023/11/05 04:34:48;;;;;;;2.58;0.85;;;;;;;;;;10257331;28;20065;-74
2023/11/05 04:39:52;;;;;;;0.60;0.50;;;;;;;;;;10255393;28;20039;-74
2023/11/05 04:44:57;;;;;;;1.40;0.50;;;;;;;;;;10269253;28;20051;-74
2023/11/05 04:50:02;;;;;;;2.55;0.40;;;;;;;;;;10258473;28;20044;-73
2023/11/05 04:55:06;;;;;;;0.90;0.40;;;;;;;;;;10271247;28;20057;-74
2023/11/05 05:00:13;;;;;;;0.38;0.32;;;;;;;;;;10277108;28;20098;-74
2023/11/05 05:05:16;;;;;;;;;;;;;;;;;;10257478;28;20519;-74
2023/11/05 05:10:19;;;;;;;1.77;0.40;;;;;;;;;;10285824;28;19921;-75
2023/11/05 05:15:24;;;;;;;1.20;0.40;;;;;;;;;;10252716;28;20051;-74
2023/11/05 05:20:27;;;;;;;1.38;0.60;;;;;;;;;;10264905;28;20059;-74
2023/11/05 05:25:30;;;;;;;0.50;0.32;;;;;;;;;;10266558;28;20062;-74
2023/11/05 05:30:35;;;;;;;0.38;0.30;;;;;;;;;;10275303;28;20141;-74
2023/11/05 05:35:38;;;;;;;0.40;0.40;;;;;;;;;;10265623;28;20050;-74
2023/11/05 05:40:42;;;;;;;0.73;0.30;;;;;;;;;;10266052;28;20047;-74
2023/11/05 05:45:46;;;;;;;1.20;0.35;;;;;;;;;;10281048;28;20043;-74
2023/11/05 05:50:50;;;;;;;0.20;0.20;;;;;;;;;;10277259;28;20054;-73
2023/11/05 05:55:53;;;;;;;0.60;0.30;;;;;;;;;;10268891;28;20050;-73
2023/11/05 06:00:58;;;;;;;0.43;0.30;;;;;;;;;;10271186;28;20057;-74
2023/11/05 06:06:01;;;;;;;0.88;0.40;;;;;;;;;;10270166;28;20051;-73
2023/11/05 06:11:05;;;;;;;0.63;0.20;;;;;;;;;;10283302;28;20133;-73
2023/11/05 06:16:09;;;;;;;0.43;0.20;;;;;;;;;;10273888;28;20051;-73
2023/11/05 06:21:13;;;;;;;0.28;0.22;;;;;;;;;;10267228;28;20615;-73
2023/11/05 06:26:17;;;;;;;0.85;0.40;;;;;;;;;;10264368;28;20069;-73
2023/11/05 06:31:21;;;;;;;1.23;0.60;;;;;;;;;;10268552;28;20420;-74
2023/11/05 06:36:25;;;;;;;0.30;0.20;;;;;;;;;;10271435;28;20050;-73
2023/11/05 06:41:28;;;;;;;1.10;0.20;;;;;;;;;;10267136;28;20055;-74
2023/11/05 06:46:33;;;;;;;0.38;0.30;;;;;;;;;;10265556;28;20061;-74
2023/11/05 06:51:36;;;;;;;0.28;0.20;;;;;;;;;;10254685;28;20590;-73
2023/11/05 06:56:39;;;;;;;2.03;0.22;;;;;;;;;;10275459;28;20114;-73
2023/11/05 07:01:46;;;;;;;0.10;0.10;;;;;;;;;;10273307;28;20070;-74
2023/11/05 07:06:50;;;;;;;1.35;0.20;;;;;;;;;;10270251;28;20135;-74
2023/11/05 07:11:53;;;;;;;1.23;0.28;;;;;;;;;;10269808;28;20556;-73
2023/11/05 07:16:58;;;;;;;0.40;0.30;;;;;;;;;;10272244;28;20043;-73
2023/11/05 07:22:01;;;;;;;0.52;0.30;;;;;;;;;;10267646;28;20057;-73
2023/11/05 07:27:05;;;;;;;0.25;0.20;;;;;;;;;;10262069;28;20061;-73
2023/11/05 07:32:09;;;;;;;0.52;0.30;;;;;;;;;;10273009;28;20053;-73
2023/11/05 07:37:13;;;;;;;2.47;0.55;;;;;;;;;;10273840;28;20043;-73
2023/11/05 07:42:16;;;;;;;0.20;0.20;;;;;;;;;;10272423;28;20105;-73
2023/11/05 07:47:21;;;;;;;1.17;0.43;;;;;;;;;;10270706;23;20047;-75
2023/11/05 07:52:24;;;;;;;0.22;0.20;;;;;;;;;;10210814;29;20551;-76
2023/11/05 07:57:29;;;;;;;0.28;0.25;;;;;;;;;;10196321;28;20134;-77
2023/11/05 08:02:34;;;;;;;0.28;0.15;;;;;;;;;;10207488;29;20052;-76
2023/11/05 08:07:37;;;;;;;0.55;0.25;;;;;;;;;;10217390;29;20051;-77
2023/11/05 08:12:41;;;;;;;0.40;0.40;;;;;;;;;;10223241;29;20131;-76
2023/11/05 08:17:46;;;;;;;0.10;0.10;;;;;;;;;;10216467;28;20429;-76
2023/11/05 08:22:49;;;;;;;0.20;0.20;;;;;;;;;;10228606;29;20115;-77
2023/11/05 08:27:54;;;;;;;1.75;0.20;;;;;;;;;;10232723;28;20683;-77
2023/11/05 08:32:59;;;;;;;2.35;0.32;;;;;;;;;;10228228;29;20055;-77
2023/11/05 08:38:02;;;;;;;1.95;0.45;;;;;;;;;;10231777;28;20047;-77
2023/11/05 08:43:06;;;;;;;1.02;0.65;;;;;;;;;;10234523;29;20052;-76
2023/11/05 08:48:10;;;;;;;1.17;0.60;;;;;;;;;;10232414;28;20056;-77
2023/11/05 08:53:14;;;;;;;0.30;0.30;;;;;;;;;;10241926;29;20576;-77
2023/11/05 08:58:17;;;;;;;0.75;0.50;;;;;;;;;;10220791;29;20083;-77
2023/11/05 09:03:22;;;;;;;0.40;0.20;;;;;;;;;;10222110;29;20052;-77
2023/11/05 09:08:25;;;;;;;1.00;0.30;;;;;;;;;;10226235;29;20061;-77
2023/11/05 09:13:29;;;;;;;1.80;0.20;;;;;;;;;;10207279;29;20051;-76
2023/11/05 09:18:33;;;;;;;0.30;0.20;;;;;;;;;;10231203;28;20047;-76
2023/11/05 09:23:37;;;;;;;0.65;0.43;;;;;;;;;;10233337;29;20476;-76
2023/11/05 09:28:40;;;;;;;0.45;0.30;;;;;;;;;;10230623;29;20047;-76
2023/11/05 09:33:44;;;;;;;0.73;0.22;;;;;;;;;;10237835;29;20082;-77
2023/11/05 09:38:48;;;;;;;0.50;0.20;;;;;;;;;;10227928;28;20126;-76
2023/11/05 09:43:52;;;;;;;0.73;0.28;;;;;;;;;;10219104;29;20046;-76
2023/11/05 09:48:57;;;;;;;0.43;0.20;;;;;;;;;;10230591;29;20449;-76
2023/11/05 09:54:00;;;;;;;0.32;0.20;;;;;;;;;;10237357;29;20073;-76
2023/11/05 09:59:03;;;;;;;0.40;0.28;;;;;;;;;;10230315;28;20513;-76
2023/11/05 10:04:11;;;;;;;1.33;0.20;;;;;;;;;;10232935;29;20047;-76
2023/11/05 10:09:14;;;;;;;0.28;0.20;;;;;;;;;;10226060;28;20054;-77
2023/11/05 10:14:18;;;;;;;0.98;0.57;;;;;;;;;;10231719;29;20055;-75
2023/11/05 10:19:22;;;;;;;0.40;0.13;;;;;;;;;;10224221;29;20070;-76
2023/11/05 10:24:40;;;;;;;0.43;0.10;;;;;;;;;;10212640;29;20043;-76
2023/11/05 10:29:44;;;;;;;0.45;0.20;;;;;;;;;;10234645;28;20055;-76
2023/11/05 10:34:51;;;;;;;0.82;0.30;;;;;;;;;;10238931;29;20043;-76
2023/11/05 10:39:54;;;;;;;0.73;0.28;;;;;;;;;;10227430;28;20074;-76
2023/11/05 10:44:59;;;;;;;0.70;0.30;;;;;;;;;;10233592;29;20052;-76
2023/11/05 10:50:08;;;;;;;0.73;0.25;;;;;;;;;;10214507;29;20052;-76
2023/11/05 10:55:12;;;;;;;0.65;0.30;;;;;;;;;;10207520;29;20622;-76
2023/11/05 11:00:49;;;;;;;0.35;0.30;;;;;;;;;;10232601;28;20567;-76
2023/11/05 11:06:01;;;;;;;0.95;0.50;;;;;;;;;;10205998;29;20397;-76
2023/11/05 11:11:15;;;;;;;0.70;0.40;;;;;;;;;;10230130;28;20047;-76
2023/11/05 11:16:25;;;;;;;0.20;0.20;;;;;;;;;;10234085;28;20043;-76
2023/11/05 11:21:33;;;;;;;0.25;0.20;;;;;;;;;;10221256;29;20575;-76
2023/11/05 11:26:42;;;;;;;0.43;0.30;;;;;;;;;;10204429;28;20062;-76
2023/11/05 11:31:46;;;;;;;0.60;0.28;;;;;;;;;;10211157;29;20055;-76
2023/11/05 11:37:04;;;;;;;0.52;0.32;;;;;;;;;;10232693;29;20505;-77
2023/11/05 11:42:08;;;;;;;0.98;0.30;;;;;;;;;;10223452;29;20051;-76
2023/11/05 11:47:11;;;;;;;0.20;0.20;;;;;;;;;;10229347;28;20521;-76
2023/11/05 11:52:16;;;;;;;0.25;0.25;;;;;;;;;;10238696;29;20043;-76
2023/11/05 11:57:20;;;;;;;0.30;0.30;;;;;;;;;;10215274;28;20063;-75
2023/11/05 12:02:23;;;;;;;2.38;0.22;;;;;;;;;;10242030;29;20094;-76
2023/11/05 12:07:44;;;;;;;0.47;0.20;;;;;;;;;;10214772;28;20044;-77
2023/11/05 12:12:49;;;;;;;0.20;0.20;;;;;;;;;;10239751;29;20083;-76
2023/11/05 12:17:53;;;;;;;0.30;0.30;;;;;;;;;;10235003;29;20071;-77
2023/11/05 12:22:59;;;;;;;0.80;0.30;;;;;;;;;;10222394;29;20082;-77
2023/11/05 12:28:02;;;;;;;0.47;0.40;;;;;;;;;;10234662;28;20055;-76
2023/11/05 12:33:06;;;;;;;0.32;0.28;;;;;;;;;;10229111;29;20047;-77
2023/11/05 12:38:10;;;;;;;2.58;0.73;;;;;;;;;;10243445;28;20043;-77
2023/11/05 12:43:14;;;;;;;1.95;0.30;;;;;;;;;;10219599;29;20046;-77
2023/11/05 12:48:17;;;;;;;0.55;0.40;;;;;;;;;;10234545;28;20040;-77
2023/11/05 12:53:22;;;;;;;1.05;0.73;;;;;;;;;;10229633;29;20047;-77
2023/11/05 12:58:25;;;;;;;1.13;0.50;;;;;;;;;;10234016;28;20491;-77
2023/11/05 13:03:29;;;;;;;0.30;0.30;;;;;;;;;;10233647;29;20118;-78
2023/11/05 13:08:36;;;;;;;1.70;0.60;;;;;;;;;;10223298;28;20075;-77
2023/11/05 13:13:39;;;;;;;0.60;0.57;;;;;;;;;;10228596;29;20497;-77
2023/11/05 13:18:44;;;;;;;0.52;0.47;;;;;;;;;;10227456;28;20044;-77
2023/11/05 13:23:49;;;;;;;1.48;0.50;;;;;;;;;;10229299;29;20055;-77
2023/11/05 13:28:52;;;;;;;0.40;0.22;;;;;;;;;;10231172;28;20079;-77
2023/11/05 13:33:58;;;;;;;2.72;1.08;;;;;;;;;;10238814;29;20043;-76
2023/11/05 13:39:04;;;;;;;1.42;0.55;;;;;;;;;;10238261;28;20489;-77
2023/11/05 13:44:08;;;;;;;0.27;0.20;;;;;;;;;;10238440;29;20062;-77
2023/11/05 13:49:11;;;;;;;0.55;0.32;;;;;;;;;;10230699;28;20516;-77
2023/11/05 13:54:16;;;;;;;1.00;0.30;;;;;;;;;;10236940;29;20058;-77
2023/11/05 13:59:20;;;;;;;0.50;0.40;;;;;;;;;;10216217;29;20049;-77
2023/11/05 14:04:23;;;;;;;0.40;0.30;;;;;;;;;;10227866;28;20048;-77
2023/11/05 14:09:30;;;;;;;0.30;0.30;;;;;;;;;;10211464;28;20079;-76
2023/11/05 14:14:35;;;;;;;0.65;0.40;;;;;;;;;;10191230;29;20510;-76
2023/11/05 14:19:38;;;;;;;1.63;1.05;;;;;;;;;;10199843;29;20054;-76
2023/11/05 14:24:43;;;;;;;6.57;2.95;;;;;;;;;;10204692;29;20111;-76
2023/11/05 14:29:46;;;;;;;4.40;2.10;;;;;;;;;;10238221;28;20103;-78
2023/11/05 14:34:50;;;;;;;2.53;1.40;;;;;;;;;;10225004;29;20047;-77
2023/11/05 14:39:56;;;;;;;1.48;0.82;;;;;;;;;;10224609;29;20086;-77
2023/11/05 14:44:59;;;;;;;2.38;0.90;;;;;;;;;;10231147;29;20055;-77
2023/11/05 14:50:03;;;;;;;2.08;1.30;;;;;;;;;;10233077;28;20134;-78
2023/11/05 14:55:10;;;;;;;1.95;1.45;;;;;;;;;;10208458;29;20082;-77
2023/11/05 15:00:17;;;;;;;1.40;0.90;;;;;;;;;;10232394;28;20055;-78
2023/11/05 15:05:22;;;;;;;1.20;0.75;;;;;;;;;;10239831;29;20046;-78
2023/11/05 15:10:28;;;;;;;1.45;0.95;;;;;;;;;;10234328;29;20074;-77
2023/11/05 15:15:31;;;;;;;3.20;0.87;;;;;;;;;;10223469;29;20055;-77
2023/11/05 15:20:35;;;;;;;2.00;0.90;;;;;;;;;;10226543;28;20303;-77
2023/11/05 15:25:42;;;;;;;2.03;1.08;;;;;;;;;;10222196;29;20054;-77
2023/11/05 15:30:45;;;;;;;1.48;1.00;;;;;;;;;;10205769;29;20055;-77
2023/11/05 15:35:49;;;;;;;1.65;1.10;;;;;;;;;;10219775;29;20047;-77
2023/11/05 15:40:54;;;;;;;1.45;0.77;;;;;;;;;;10228145;29;20055;-76
2023/11/05 15:45:57;;;;;;;1.40;0.90;;;;;;;;;;10224730;29;20051;-77
2023/11/05 15:51:01;;;;;;;1.80;1.00;;;;;;;;;;10230173;28;20147;-77
2023/11/05 15:56:06;;;;;;;1.52;1.10;;;;;;;;;;10239885;29;20051;-76
2023/11/05 16:01:12;;;;;;;;;;;;;;;;;;10240726;28;20099;-77
2023/11/05 16:06:15;;;;;;;1.65;1.10;;;;;;;;;;10218403;28;19970;-76
2023/11/05 16:11:20;;;;;;;3.03;1.58;;;;;;;;;;10225613;29;20050;-76
2023/11/05 16:16:24;;;;;;;1.77;1.17;;;;;;;;;;10240125;28;20047;-77
2023/11/05 16:21:27;;;;;;;1.35;1.10;;;;;;;;;;10228566;29;20138;-77
2023/11/05 16:26:34;;;;;;;2.42;1.33;;;;;;;;;;10239994;28;20056;-77
2023/11/05 16:31:37;;;;;;;2.58;1.55;;;;;;;;;;10245875;29;20744;-76
2023/11/05 16:36:41;;;;;;;2.83;1.23;;;;;;;;;;10239411;28;20051;-77
2023/11/05 16:41:45;;;;;;;2.15;1.50;;;;;;;;;;10239519;29;20449;-77
2023/11/05 16:46:49;;;;;;;2.55;1.55;;;;;;;;;;10233771;28;20062;-77
2023/11/05 16:51:52;;;;;;;3.08;1.63;;;;;;;;;;10230249;29;20117;-77
2023/11/05 16:56:59;;;;;;;3.45;1.75;;;;;;;;;;10228493;28;20044;-77
2023/11/05 17:02:03;;;;;;;2.00;1.20;;;;;;;;;;10212827;29;20061;-76
2023/11/05 17:07:06;;;;;;;3.65;1.20;;;;;;;;;;10218110;28;20122;-77
2023/11/05 17:12:11;;;;;;;2.35;1.42;;;;;;;;;;10225759;29;20052;-77
2023/11/05 17:17:14;;;;;;;3.53;1.70;;;;;;;;;;10234646;28;20501;-76
2023/11/05 17:22:18;;;;;;;6.25;1.80;;;;;;;;;;10229462;29;20143;-77
2023/11/05 17:27:22;;;;;;;1.50;1.23;;;;;;;;;;10228929;28;20134;-77
2023/11/05 17:32:26;;;;;;;3.83;1.40;;;;;;;;;;10221965;29;20425;-77
2023/11/05 17:37:29;;;;;;;4.78;2.22;;;;;;;;;;10208366;29;20052;-76
2023/11/05 17:42:34;;;;;;;3.90;2.13;;;;;;;;;;10221667;29;20512;-77
2023/11/05 17:47:41;;;;;;;5.22;2.03;;;;;;;;;;10241947;28;20547;-76
2023/11/05 17:52:44;;;;;;;3.40;1.80;;;;;;;;;;10225196;29;20040;-77
2023/11/05 17:57:49;;;;;;;3.25;1.70;;;;;;;;;;10215796;29;20047;-76
2023/11/05 18:02:55;;;;;;;2.20;1.48;;;;;;;;;;10226227;29;20165;-76
2023/11/05 18:07:59;;;;;;;2.38;1.45;;;;;;;;;;10233360;28;20051;-76
2023/11/05 18:13:05;;;;;;;2.60;1.50;;;;;;;;;;10219601;29;20510;-77
2023/11/05 18:18:09;;;;;;;2.92;1.20;;;;;;;;;;10224562;29;20065;-76
2023/11/05 18:23:12;;;;;;;3.17;1.50;;;;;;;;;;10216569;29;20079;-76
2023/11/05 18:28:17;;;;;;;5.28;1.80;;;;;;;;;;10225840;28;20134;-76
2023/11/05 18:33:26;;;;;;;2.40;1.35;;;;;;;;;;10236246;29;20437;-77
2023/11/05 18:38:33;;;;;;;4.90;1.80;;;;;;;;;;10193991;29;20248;-76
2023/11/05 18:43:38;;;;;;;5.18;2.05;;;;;;;;;;10224317;29;20539;-77
2023/11/05 18:49:41;;;;;;;2.53;1.20;;;;;;;;;;10221439;29;20083;-76
2023/11/05 18:54:48;;;;;;;1.48;0.90;;;;;;;;;;10224637;29;20720;-77
2023/11/05 18:59:53;;;;;;;4.05;1.30;;;;;;;;;;10229731;28;20126;-77
2023/11/05 19:04:56;;;;;;;8.43;2.75;;;;;;;;;;10206674;29;20468;-77
2023/11/05 19:10:01;;;;;;;6.20;1.70;;;;;;;;;;10216379;29;20490;-77
2023/11/05 19:15:07;;;;;;;2.85;1.30;;;;;;;;;;10213105;29;20125;-77
2023/11/05 19:20:11;;;;;;;3.27;1.53;;;;;;;;;;10197609;29;20058;-77
2023/11/05 19:25:15;;;;;;;4.90;1.30;;;;;;;;;;10209190;29;20376;-76
2023/11/05 19:30:20;;;;;;;4.93;1.75;;;;;;;;;;10220704;28;20800;-76
2023/11/05 19:35:23;;;;;;;2.22;1.15;;;;;;;;;;10228108;29;20114;-76
2023/11/05 19:40:27;;;;;;;2.72;1.38;;;;;;;;;;10195556;29;20421;-77
2023/11/05 19:45:32;;;;;;;4.03;1.58;;;;;;;;;;10228564;23;20056;-73
2023/11/05 19:50:35;;;;;;;7.13;2.75;;;;;;;;;;10170438;29;20391;-74
2023/11/05 19:55:40;;;;;;;5.15;1.73;;;;;;;;;;10158407;29;20072;-73
2023/11/05 20:00:46;;;;;;;11.65;3.83;;;;;;;;;;10181181;29;20078;-73
2023/11/05 20:05:49;;;;;;;4.68;1.50;;;;;;;;;;10182277;29;20055;-73
2023/11/05 20:10:54;;;;;;;4.60;1.35;;;;;;;;;;10174025;29;20501;-73
2023/11/05 20:15:59;;;;;;;6.53;2.08;;;;;;;;;;10187875;29;20135;-73
2023/11/05 20:21:02;;;;;;;4.18;1.00;;;;;;;;;;10189595;29;20048;-74
2023/11/05 20:26:06;;;;;;;3.10;0.88;;;;;;;;;;10187198;29;20058;-74
2023/11/05 20:31:12;;;;;;;5.00;1.35;;;;;;;;;;10188654;29;20071;-73
2023/11/05 20:36:16;;;;;;;5.13;0.95;;;;;;;;;;10162699;29;20047;-73
2023/11/05 20:41:19;;;;;;;3.00;0.98;;;;;;;;;;10187565;29;20050;-73
2023/11/05 20:46:24;;;;;;;4.00;1.20;;;;;;;;;;10172378;29;20060;-74
2023/11/05 20:51:28;;;;;;;3.80;1.27;;;;;;;;;;10171214;29;20069;-74
2023/11/05 20:56:32;;;;;;;4.85;1.17;;;;;;;;;;10185878;29;20579;-74
2023/11/05 21:01:37;;;;;;;4.75;1.17;;;;;;;;;;10190976;29;20048;-74
2023/11/05 21:06:40;;;;;;;3.80;1.00;;;;;;;;;;10192583;29;20075;-74
2023/11/05 21:11:44;;;;;;;2.85;1.08;;;;;;;;;;10196325;29;20052;-74
2023/11/05 21:16:48;;;;;;;2.65;1.23;;;;;;;;;;10197107;29;20048;-74
2023/11/05 21:21:51;;;;;;;2.83;0.95;;;;;;;;;;10186689;29;20044;-74
2023/11/05 21:26:55;;;;;;;7.60;3.90;;;;;;;;;;10145593;29;20106;-74
2023/11/05 21:32:02;;;;;;;4.72;1.75;;;;;;;;;;10154901;29;20519;-74
2023/11/05 21:37:06;;;;;;;4.75;1.45;;;;;;;;;;10174230;29;20048;-74
2023/11/05 21:42:09;;;;;;;3.67;1.13;;;;;;;;;;10182888;29;20528;-74
2023/11/05 21:47:13;;;;;;;8.00;2.90;;;;;;;;;;10191489;29;20536;-74
2023/11/05 21:52:17;;;;;;;2.05;1.10;;;;;;;;;;10192748;29;20063;-74
2023/11/05 21:57:21;;;;;;;2.90;1.00;;;;;;;;;;10196399;29;20047;-74
2023/11/05 22:02:25;;;;;;;2.08;1.00;;;;;;;;;;10185508;29;20152;-74
2023/11/05 22:07:29;;;;;;;3.65;1.30;;;;;;;;;;10184995;29;20052;-74
2023/11/05 22:12:33;;;;;;;2.13;0.75;;;;;;;;;;10193974;29;20048;-74
2023/11/05 22:17:38;;;;;;;2.22;1.00;;;;;;;;;;10188349;29;20044;-74
2023/11/05 22:22:41;;;;;;;2.55;0.98;;;;;;;;;;10191994;29;20089;-74
2023/11/05 22:27:44;;;;;;;2.35;0.82;;;;;;;;;;10169372;29;20090;-74
2023/11/05 22:32:50;;;;;;;4.20;0.88;;;;;;;;;;10188985;29;20051;-74
2023/11/05 22:37:54;;;;;;;2.22;0.65;;;;;;;;;;10194888;29;20486;-74
2023/11/05 22:42:57;;;;;;;3.20;1.00;;;;;;;;;;10201115;29;20042;-74
2023/11/05 22:48:02;;;;;;;3.72;1.17;;;;;;;;;;10181106;29;20052;-74
2023/11/05 22:53:06;;;;;;;2.55;1.10;;;;;;;;;;10173932;29;20044;-74
2023/11/05 22:58:09;;;;;;;3.08;1.17;;;;;;;;;;10186007;29;20050;-73
2023/11/05 23:03:15;;;;;;;3.83;1.00;;;;;;;;;;10198573;29;20047;-74
2023/11/05 23:08:19;;;;;;;4.25;1.50;;;;;;;;;;10184865;29;20127;-74
2023/11/05 23:13:23;;;;;;;7.82;2.05;;;;;;;;;;10182859;29;20055;-74
2023/11/05 23:18:27;;;;;;;3.63;1.30;;;;;;;;;;10183865;29;20727;-73
2023/11/05 23:23:31;;;;;;;2.88;0.90;;;;;;;;;;10179358;29;20838;-73
2023/11/05 23:28:34;;;;;;;3.30;0.90;;;;;;;;;;10181278;29;20055;-74
2023/11/05 23:33:40;;;;;;;1.45;0.70;;;;;;;;;;10185257;29;20054;-74
2023/11/05 23:38:44;;;;;;;3.88;1.08;;;;;;;;;;10194723;29;20135;-74
2023/11/05 23:43:47;;;;;;;2.47;1.00;;;;;;;;;;10195010;29;20711;-74
2023/11/05 23:48:52;;;;;;;3.45;0.98;;;;;;;;;;10187159;29;20082;-74
2023/11/05 23:53:55;;;;;;;5.05;0.90;;;;;;;;;;10192778;29;20052;-73
2023/11/05 23:59:00;;;;;;;3.08;0.98;;;;;;;;;;10161687;29;20052;-74
